createdAt,value
2019-01-06T00:02:02.857Z,1.50
2019-01-06T00:04:33.870Z,1.87
2019-01-06T00:07:04.899Z,1.53
2019-01-06T00:09:52.399Z,1.40
2019-01-06T00:12:32.263Z,2.30
2019-01-06T00:15:09.497Z,1.73
2019-01-06T00:17:40.515Z,1.57
2019-01-06T00:20:27.759Z,2.83
2019-01-06T00:23:01.487Z,2.10
2019-01-06T00:25:48.931Z,1.43
2019-01-06T00:28:36.097Z,3.40
2019-01-06T00:31:07.516Z,2.20
2019-01-06T00:33:38.519Z,4.33
2019-01-06T00:36:25.914Z,2.70
2019-01-06T00:39:02.604Z,1.83
2019-01-06T00:41:49.857Z,3.30
2019-01-06T00:44:46.130Z,2.30
2019-01-06T00:47:35.075Z,3.00
2019-01-06T00:50:09.842Z,2.80
2019-01-06T00:52:56.163Z,2.73
2019-01-06T00:55:43.495Z,3.13
2019-01-06T00:58:30.868Z,2.80
2019-01-06T01:01:16.893Z,2.70
2019-01-06T01:03:54.550Z,2.60
2019-01-06T01:06:28.646Z,2.58
2019-01-06T01:09:37.170Z,3.07
2019-01-06T01:12:08.180Z,2.30
2019-01-06T01:14:51.406Z,3.13
2019-01-06T01:17:38.649Z,3.17
2019-01-06T01:20:16.729Z,2.98
2019-01-06T01:22:47.739Z,2.30
2019-01-06T01:25:18.751Z,3.63
2019-01-06T01:28:01.671Z,2.87
2019-01-06T01:30:51.007Z,3.10
2019-01-06T01:33:22.027Z,2.53
2019-01-06T01:35:53.046Z,2.73
2019-01-06T01:38:26.496Z,3.67
2019-01-06T01:41:00.832Z,2.50
2019-01-06T01:43:40.728Z,2.87
2019-01-06T01:46:20.938Z,2.90
2019-01-06T01:49:09.354Z,2.83
2019-01-06T01:51:43.112Z,2.80
2019-01-06T01:54:19.963Z,3.20
2019-01-06T01:57:00.708Z,2.77
2019-01-06T01:59:50.123Z,3.13
2019-01-06T02:02:21.140Z,2.90
2019-01-06T02:05:02.683Z,2.77
2019-01-06T02:07:50.253Z,3.20
2019-01-06T02:10:33.230Z,2.93
2019-01-06T02:13:07.501Z,2.93
2019-01-06T02:15:54.778Z,3.00
2019-01-06T02:18:31.451Z,3.60
2019-01-06T02:21:08.216Z,3.00
2019-01-06T02:23:39.226Z,2.87
2019-01-06T02:26:15.982Z,4.23
2019-01-06T02:28:50.578Z,3.20
2019-01-06T02:31:21.588Z,2.93
2019-01-06T02:33:52.877Z,3.17
2019-01-06T02:36:33.118Z,3.50
2019-01-06T02:39:20.669Z,3.40
2019-01-06T02:41:54.356Z,3.47
2019-01-06T02:44:41.508Z,4.57
2019-01-06T02:47:13.097Z,3.50
2019-01-06T02:49:56.303Z,3.63
2019-01-06T02:52:36.310Z,2.77
2019-01-06T02:55:13.355Z,4.37
2019-01-06T02:57:53.205Z,3.23
2019-01-06T03:00:40.553Z,3.63
2019-01-06T03:03:20.766Z,4.20
2019-01-06T03:06:09.600Z,3.40
2019-01-06T03:08:56.629Z,4.00
2019-01-06T03:11:30.189Z,3.30
2019-01-06T03:14:01.194Z,3.60
2019-01-06T03:16:34.905Z,3.70
2019-01-06T03:19:05.912Z,3.53
2019-01-06T03:21:48.845Z,3.15
2019-01-06T03:24:22.804Z,3.13
2019-01-06T03:26:54.167Z,3.60
2019-01-06T03:29:40.511Z,3.13
2019-01-06T03:32:20.472Z,3.47
2019-01-06T03:35:06.737Z,3.20
2019-01-06T03:37:37.742Z,3.20
2019-01-06T03:40:09.338Z,3.17
2019-01-06T03:42:43.619Z,3.83
2019-01-06T03:45:23.479Z,3.03
2019-01-06T03:48:03.625Z,3.33
2019-01-06T03:50:52.897Z,3.63
2019-01-06T03:53:26.857Z,3.70
2019-01-06T03:56:06.655Z,2.97
2019-01-06T03:58:54.215Z,3.27
2019-01-06T04:01:31.674Z,3.98
2019-01-06T04:04:11.933Z,3.07
2019-01-06T04:06:55.200Z,3.27
2019-01-06T04:09:35.272Z,3.07
2019-01-06T04:12:06.539Z,3.00
2019-01-06T04:14:54.277Z,3.20
2019-01-06T04:17:28.272Z,3.13
2019-01-06T04:20:15.957Z,4.30
2019-01-06T04:23:03.480Z,3.40
2019-01-06T04:25:43.446Z,3.80
2019-01-06T04:28:26.276Z,2.90
2019-01-06T04:31:03.221Z,3.37
2019-01-06T04:33:43.141Z,4.90
2019-01-06T04:36:29.216Z,2.73
2019-01-06T04:39:03.285Z,4.67
2019-01-06T04:41:50.365Z,2.83
2019-01-06T04:44:23.930Z,3.00
2019-01-06T04:46:55.238Z,3.30
2019-01-06T04:49:35.449Z,2.87
2019-01-06T04:52:06.655Z,4.87
2019-01-06T04:54:40.615Z,3.77
2019-01-06T04:57:26.911Z,3.17
2019-01-06T05:00:14.518Z,4.40
2019-01-06T05:02:45.531Z,3.47
2019-01-06T05:05:16.552Z,2.97
2019-01-06T05:07:47.563Z,3.23
2019-01-06T05:10:25.042Z,4.65
2019-01-06T05:12:56.039Z,3.13
2019-01-06T05:15:27.051Z,2.57
2019-01-06T05:18:14.420Z,3.63
2019-01-06T05:21:01.554Z,6.00
2019-01-06T05:23:44.568Z,3.20
2019-01-06T05:26:15.622Z,5.17
2019-01-06T05:28:46.634Z,3.20
2019-01-06T05:31:18.224Z,3.30
2019-01-06T05:33:55.245Z,2.73
2019-01-06T05:36:41.296Z,3.07
2019-01-06T05:39:28.272Z,3.00
2019-01-06T05:42:08.281Z,3.00
2019-01-06T05:44:48.541Z,3.17
2019-01-06T05:47:19.867Z,3.40
2019-01-06T05:50:05.878Z,2.40
2019-01-06T05:52:40.226Z,2.40
2019-01-06T05:55:20.258Z,2.43
2019-01-06T05:57:51.290Z,2.50
2019-01-06T06:00:22.304Z,2.40
2019-01-06T06:03:09.933Z,3.17
2019-01-06T06:05:46.746Z,2.53
2019-01-06T06:08:23.856Z,2.30
2019-01-06T06:10:57.786Z,2.73
2019-01-06T06:13:31.757Z,2.63
2019-01-06T06:16:08.645Z,3.27
2019-01-06T06:18:40.354Z,2.47
2019-01-06T06:21:27.241Z,3.30
2019-01-06T06:24:07.157Z,3.17
2019-01-06T06:26:38.166Z,2.50
2019-01-06T06:29:14.889Z,2.50
2019-01-06T06:32:02.289Z,2.57
2019-01-06T06:34:48.391Z,3.00
2019-01-06T06:37:31.401Z,2.10
2019-01-06T06:40:05.403Z,2.97
2019-01-06T06:42:51.708Z,2.47
2019-01-06T06:45:22.760Z,4.20
2019-01-06T06:47:53.768Z,3.00
2019-01-06T06:50:27.732Z,2.07
2019-01-06T06:53:14.332Z,2.57
2019-01-06T06:55:57.775Z,2.30
2019-01-06T06:58:28.802Z,2.10
2019-01-06T07:01:19.305Z,2.37
2019-01-06T07:03:56.046Z,2.67
2019-01-06T07:06:43.722Z,2.10
2019-01-06T07:09:14.919Z,2.40
2019-01-06T07:12:02.079Z,2.37
2019-01-06T07:14:48.274Z,2.20
2019-01-06T07:17:50.249Z,2.30
2019-01-06T07:20:39.807Z,1.80
2019-01-06T07:23:25.563Z,2.33
2019-01-06T07:26:13.086Z,2.27
2019-01-06T07:29:00.305Z,2.03
2019-01-06T07:31:47.269Z,1.53
2019-01-06T07:34:27.221Z,2.00
2019-01-06T07:37:14.504Z,2.52
2019-01-06T07:39:45.505Z,2.53
2019-01-06T07:42:28.619Z,2.10
2019-01-06T07:44:59.623Z,2.10
2019-01-06T07:47:33.531Z,2.60
2019-01-06T07:50:04.653Z,2.20
2019-01-06T07:52:35.653Z,2.10
2019-01-06T07:55:09.833Z,2.37
2019-01-06T07:57:49.607Z,2.80
2019-01-06T08:00:40.620Z,1.93
2019-01-06T08:03:23.832Z,2.50
2019-01-06T08:06:11.508Z,6.53
2019-01-06T08:08:57.624Z,2.70
2019-01-06T08:11:31.295Z,2.90
2019-01-06T08:14:18.688Z,1.73
2019-01-06T08:17:06.878Z,3.00
2019-01-06T08:19:37.887Z,1.67
2019-01-06T08:22:14.914Z,1.90
2019-01-06T08:24:45.927Z,1.97
2019-01-06T08:27:33.114Z,1.53
2019-01-06T08:30:20.296Z,2.27
2019-01-06T08:32:51.630Z,2.07
2019-01-06T08:35:34.517Z,2.87
2019-01-06T08:38:11.512Z,2.73
2019-01-06T08:40:42.524Z,2.60
2019-01-06T08:43:16.270Z,2.37
2019-01-06T08:46:03.560Z,1.97
2019-01-06T08:48:49.621Z,1.93
2019-01-06T08:51:39.022Z,2.17
2019-01-06T08:54:12.783Z,2.80
2019-01-06T08:56:59.805Z,2.83
2019-01-06T08:59:34.039Z,2.37
2019-01-06T09:02:17.081Z,2.43
2019-01-06T09:05:04.463Z,1.63
2019-01-06T09:07:38.270Z,1.77
2019-01-06T09:10:15.406Z,1.80
2019-01-06T09:13:04.694Z,1.77
2019-01-06T09:15:38.586Z,2.00
2019-01-06T09:18:25.892Z,2.30
2019-01-06T09:20:57.244Z,2.10
2019-01-06T09:23:28.245Z,2.03
2019-01-06T09:26:08.690Z,2.30
2019-01-06T09:28:39.704Z,2.47
2019-01-06T09:31:10.737Z,2.23
2019-01-06T09:33:57.906Z,2.00
2019-01-06T09:36:37.890Z,2.35
2019-01-06T09:39:12.501Z,1.97
2019-01-06T09:41:52.532Z,1.70
2019-01-06T09:44:23.963Z,1.70
2019-01-06T09:46:54.975Z,2.10
2019-01-06T09:49:35.167Z,2.63
2019-01-06T09:52:06.172Z,1.67
2019-01-06T09:54:53.399Z,1.53
2019-01-06T09:57:40.860Z,1.70
2019-01-06T10:00:24.695Z,1.40
2019-01-06T10:03:12.810Z,2.37
2019-01-06T10:05:49.570Z,1.20
2019-01-06T10:08:23.331Z,1.67
2019-01-06T10:10:54.346Z,1.22
2019-01-06T10:13:28.324Z,1.80
2019-01-06T10:16:11.491Z,1.43
2019-01-06T10:18:57.890Z,1.53
2019-01-06T10:21:45.035Z,3.57
2019-01-06T10:24:16.060Z,3.07
2019-01-06T10:26:47.076Z,1.23
2019-01-06T10:29:20.736Z,1.77
2019-01-06T10:32:00.571Z,4.00
2019-01-06T10:34:51.257Z,1.80
2019-01-06T10:37:28.437Z,1.77
2019-01-06T10:40:15.870Z,1.30
2019-01-06T10:42:46.927Z,2.13
2019-01-06T10:45:24.310Z,1.30
2019-01-06T10:47:58.140Z,2.30
2019-01-06T10:50:45.832Z,1.63
2019-01-06T10:53:16.895Z,2.00
2019-01-06T10:56:06.107Z,1.63
2019-01-06T10:58:53.841Z,2.50
2019-01-06T11:01:33.874Z,1.40
2019-01-06T11:04:08.070Z,2.37
2019-01-06T11:06:51.229Z,1.30
2019-01-06T11:09:39.206Z,1.87
2019-01-06T11:12:26.342Z,2.50
2019-01-06T11:15:00.167Z,1.77
2019-01-06T11:17:47.307Z,1.37
2019-01-06T11:20:24.051Z,1.43
2019-01-06T11:23:04.428Z,1.40
2019-01-06T11:25:54.267Z,0.97
2019-01-06T11:28:34.503Z,0.93
2019-01-06T11:31:11.618Z,1.40
2019-01-06T11:33:59.060Z,1.07
2019-01-06T11:36:30.338Z,1.40
2019-01-06T11:39:01.358Z,1.20
2019-01-06T11:41:48.952Z,1.27
2019-01-06T11:44:31.863Z,1.70
2019-01-06T11:47:20.933Z,1.37
2019-01-06T11:49:51.955Z,1.60
2019-01-06T11:52:31.867Z,1.33
2019-01-06T11:55:05.943Z,2.47
2019-01-06T11:57:53.740Z,2.93
2019-01-06T12:00:33.834Z,2.00
2019-01-06T12:03:20.995Z,1.27
2019-01-06T12:06:09.037Z,1.10
2019-01-06T12:08:58.412Z,1.93
2019-01-06T12:11:35.190Z,1.73
2019-01-06T12:14:09.646Z,1.30
2019-01-06T12:16:49.338Z,1.32
2019-01-06T12:19:33.677Z,1.43
2019-01-06T12:22:08.000Z,1.40
2019-01-06T12:24:45.103Z,2.67
2019-01-06T12:27:16.122Z,1.37
2019-01-06T12:29:47.133Z,1.23
2019-01-06T12:32:21.529Z,1.73
2019-01-06T12:34:59.839Z,1.60
2019-01-06T12:37:33.737Z,2.50
2019-01-06T12:40:13.734Z,1.10
2019-01-06T12:42:56.871Z,1.30
2019-01-06T12:45:30.844Z,0.97
2019-01-06T12:48:04.466Z,1.23
2019-01-06T12:50:41.454Z,1.10
2019-01-06T12:53:12.467Z,0.80
2019-01-06T12:56:00.150Z,1.00
2019-01-06T12:58:47.316Z,1.53
2019-01-06T13:01:18.349Z,2.37
2019-01-06T13:03:52.187Z,1.30
2019-01-06T13:06:23.211Z,1.77
2019-01-06T13:09:03.993Z,1.27
2019-01-06T13:11:37.547Z,0.90
2019-01-06T13:14:11.808Z,1.40
2019-01-06T13:16:45.578Z,1.37
2019-01-06T13:19:16.672Z,1.43
2019-01-06T13:21:47.826Z,1.73
2019-01-06T13:24:21.786Z,1.80
2019-01-06T13:27:09.444Z,1.43
2019-01-06T13:29:40.542Z,1.20
2019-01-06T13:32:20.942Z,2.73
2019-01-06T13:35:00.683Z,2.03
2019-01-06T13:37:37.291Z,1.77
2019-01-06T13:40:21.109Z,1.60
2019-01-06T13:43:09.026Z,1.57
2019-01-06T13:45:46.146Z,0.93
2019-01-06T13:48:17.188Z,1.40
2019-01-06T13:51:04.565Z,1.37
2019-01-06T13:53:38.324Z,1.17
2019-01-06T13:56:25.719Z,1.23
2019-01-06T13:58:59.948Z,1.60
2019-01-06T14:01:36.405Z,1.77
2019-01-06T14:04:13.152Z,1.83
2019-01-06T14:06:53.402Z,1.57
2019-01-06T14:09:27.624Z,1.00
2019-01-06T14:11:59.601Z,0.90
2019-01-06T14:14:30.611Z,1.60
2019-01-06T14:17:07.708Z,1.30
2019-01-06T14:19:50.734Z,1.03
2019-01-06T14:22:27.688Z,2.97
2019-01-06T14:24:58.700Z,1.37
2019-01-06T14:27:32.650Z,0.83
2019-01-06T14:30:06.078Z,1.77
2019-01-06T14:32:53.883Z,1.83
2019-01-06T14:35:27.936Z,1.63
2019-01-06T14:38:01.863Z,2.30
2019-01-06T14:40:35.633Z,3.00
2019-01-06T14:43:06.666Z,2.10
2019-01-06T14:45:49.700Z,3.23
2019-01-06T14:48:24.071Z,3.37
2019-01-06T14:51:11.865Z,3.00
2019-01-06T14:53:59.206Z,1.63
2019-01-06T14:56:36.089Z,2.10
2019-01-06T14:59:21.882Z,1.80
2019-01-06T15:01:52.905Z,3.37
2019-01-06T15:04:26.678Z,2.03
2019-01-06T15:07:14.000Z,1.87
2019-01-06T15:10:01.122Z,2.20
2019-01-06T15:12:38.080Z,1.97
2019-01-06T15:15:22.587Z,2.27
2019-01-06T15:17:53.611Z,2.83
2019-01-06T15:20:40.661Z,2.97
2019-01-06T15:23:29.267Z,3.40
2019-01-06T15:26:06.459Z,2.30
2019-01-06T15:28:49.634Z,2.60
2019-01-06T15:31:20.644Z,2.57
2019-01-06T15:34:08.154Z,2.17
2019-01-06T15:36:48.296Z,2.47
2019-01-06T15:39:19.677Z,2.00
2019-01-06T15:41:59.886Z,2.37
2019-01-06T15:44:46.218Z,2.60
2019-01-06T15:47:32.367Z,1.77
2019-01-06T15:50:03.663Z,3.37
2019-01-06T15:52:37.406Z,2.60
2019-01-06T15:55:16.928Z,2.90
2019-01-06T15:57:52.445Z,2.50
2019-01-06T16:00:39.592Z,4.63
2019-01-06T16:03:10.699Z,4.30
2019-01-06T16:05:42.098Z,2.70
2019-01-06T16:08:31.107Z,3.20
2019-01-06T16:11:02.128Z,2.60
2019-01-06T16:13:45.758Z,3.50
2019-01-06T16:16:19.794Z,3.07
2019-01-06T16:18:50.820Z,3.67
2019-01-06T16:21:38.086Z,2.83
2019-01-06T16:24:09.103Z,3.83
2019-01-06T16:26:49.461Z,3.63
2019-01-06T16:29:38.854Z,3.27
2019-01-06T16:32:10.130Z,3.03
2019-01-06T16:34:57.541Z,3.20
2019-01-06T16:37:37.809Z,3.07
2019-01-06T16:40:22.006Z,3.60
2019-01-06T16:42:53.039Z,3.07
2019-01-06T16:45:40.431Z,3.60
2019-01-06T16:48:17.613Z,3.23
2019-01-06T16:51:04.866Z,4.13
2019-01-06T16:53:38.519Z,3.50
2019-01-06T16:56:21.813Z,3.60
2019-01-06T16:58:52.845Z,3.10
2019-01-06T17:01:40.171Z,3.63
2019-01-06T17:04:17.297Z,3.80
2019-01-06T17:06:51.017Z,3.63
2019-01-06T17:09:34.395Z,3.23
2019-01-06T17:12:05.405Z,4.77
2019-01-06T17:14:48.360Z,3.87
2019-01-06T17:17:26.386Z,3.83
2019-01-06T17:20:16.011Z,4.90
2019-01-06T17:23:02.905Z,3.73
2019-01-06T17:25:52.036Z,6.87
2019-01-06T17:28:23.061Z,4.20
2019-01-06T17:31:10.684Z,3.77
2019-01-06T17:33:58.643Z,3.87
2019-01-06T17:36:32.724Z,3.67
2019-01-06T17:39:03.742Z,4.23
2019-01-06T17:41:52.833Z,3.83
2019-01-06T17:44:26.746Z,3.43
2019-01-06T17:47:03.693Z,3.20
2019-01-06T17:49:50.677Z,4.43
2019-01-06T17:52:22.242Z,4.80
2019-01-06T17:55:02.195Z,5.50
2019-01-06T17:57:48.244Z,5.20
2019-01-06T18:00:31.515Z,4.10
2019-01-06T18:03:05.600Z,4.23
2019-01-06T18:05:54.765Z,4.30
2019-01-06T18:08:32.494Z,4.50
2019-01-06T18:11:09.329Z,5.13
2019-01-06T18:13:55.781Z,4.37
2019-01-06T18:16:39.023Z,4.53
2019-01-06T18:19:16.392Z,4.23
2019-01-06T18:22:02.537Z,4.13
2019-01-06T18:24:42.909Z,4.37
2019-01-06T18:27:23.498Z,4.40
2019-01-06T18:30:06.429Z,5.73
2019-01-06T18:32:43.304Z,5.23
2019-01-06T18:35:30.550Z,4.90
2019-01-06T18:38:07.259Z,5.43
2019-01-06T18:40:47.486Z,5.67
2019-01-06T18:43:34.885Z,6.33
2019-01-06T18:46:14.687Z,5.63
2019-01-06T18:49:03.180Z,5.80
2019-01-06T18:51:50.406Z,5.43
2019-01-06T18:54:21.422Z,4.93
2019-01-06T18:56:58.715Z,5.03
2019-01-06T18:59:32.751Z,5.57
2019-01-06T19:02:22.081Z,8.30
2019-01-06T19:04:53.110Z,4.30
2019-01-06T19:07:33.165Z,4.77
2019-01-06T19:10:19.216Z,5.60
2019-01-06T19:13:02.330Z,4.37
2019-01-06T19:15:32.195Z,5.50
2019-01-06T19:18:06.176Z,4.47
2019-01-06T19:20:51.983Z,3.70
2019-01-06T19:23:40.602Z,4.97
2019-01-06T19:26:23.593Z,5.47
2019-01-06T19:29:00.592Z,5.07
2019-01-06T19:31:48.218Z,4.67
2019-01-06T19:34:19.223Z,5.37
2019-01-06T19:36:52.935Z,5.93
2019-01-06T19:39:29.947Z,6.50
2019-01-06T19:42:06.795Z,5.30
2019-01-06T19:44:40.845Z,6.13
2019-01-06T19:47:14.602Z,4.97
2019-01-06T19:50:00.904Z,4.93
2019-01-06T19:52:49.274Z,5.63
2019-01-06T19:55:36.874Z,5.03
2019-01-06T19:58:13.706Z,4.93
2019-01-06T20:00:45.474Z,5.07
2019-01-06T20:03:16.551Z,4.80
2019-01-06T20:05:50.299Z,5.83
2019-01-06T20:08:37.439Z,5.73
2019-01-06T20:11:24.793Z,5.17
2019-01-06T20:14:01.643Z,5.60
2019-01-06T20:16:48.785Z,5.77
2019-01-06T20:19:36.987Z,5.10
2019-01-06T20:22:25.875Z,5.53
2019-01-06T20:25:00.837Z,5.13
2019-01-06T20:27:38.443Z,5.23
2019-01-06T20:30:22.250Z,4.25
2019-01-06T20:32:58.955Z,7.13
2019-01-06T20:35:39.474Z,5.73
2019-01-06T20:38:28.470Z,5.10
2019-01-06T20:41:08.648Z,3.60
2019-01-06T20:43:43.917Z,4.97
2019-01-06T20:46:14.935Z,4.57
2019-01-06T20:49:02.090Z,5.03
2019-01-06T20:51:33.096Z,4.60
2019-01-06T20:54:10.149Z,4.27
2019-01-06T20:56:47.129Z,4.83
2019-01-06T20:59:21.290Z,3.73
2019-01-06T21:02:06.915Z,5.00
2019-01-06T21:04:49.954Z,4.63
2019-01-06T21:07:33.258Z,4.73
2019-01-06T21:10:08.857Z,5.13
2019-01-06T21:12:46.015Z,6.57
2019-01-06T21:15:33.380Z,7.03
2019-01-06T21:18:22.594Z,5.07
2019-01-06T21:21:11.918Z,5.53
2019-01-06T21:23:48.442Z,5.70
2019-01-06T21:26:36.735Z,5.87
2019-01-06T21:29:23.880Z,5.57
2019-01-06T21:32:03.641Z,6.20
2019-01-06T21:34:43.674Z,5.37
2019-01-06T21:37:23.671Z,5.47
2019-01-06T21:40:03.930Z,5.40
2019-01-06T21:42:50.877Z,5.17
2019-01-06T21:45:24.932Z,4.87
2019-01-06T21:48:02.014Z,5.07
2019-01-06T21:50:35.671Z,5.63
2019-01-06T21:53:15.891Z,5.87
2019-01-06T21:56:05.331Z,6.30
2019-01-06T21:58:39.422Z,5.07
2019-01-06T22:01:28.767Z,5.90
2019-01-06T22:04:14.831Z,5.80
2019-01-06T22:07:02.217Z,6.20
2019-01-06T22:09:33.250Z,6.37
2019-01-06T22:12:04.552Z,7.03
2019-01-06T22:14:38.323Z,7.27
2019-01-06T22:17:25.637Z,6.53
2019-01-06T22:19:56.651Z,6.33
2019-01-06T22:22:33.387Z,6.53
2019-01-06T22:25:20.863Z,6.30
2019-01-06T22:27:55.696Z,7.00
2019-01-06T22:30:29.269Z,6.13
2019-01-06T22:33:17.100Z,6.80
2019-01-06T22:35:51.856Z,6.73
2019-01-06T22:38:28.558Z,7.00
2019-01-06T22:41:17.525Z,6.87
2019-01-06T22:43:57.218Z,6.87
2019-01-06T22:46:44.235Z,6.67
2019-01-06T22:49:15.292Z,6.20
2019-01-06T22:51:49.306Z,6.87
2019-01-06T22:54:20.318Z,6.63
2019-01-06T22:57:07.510Z,7.70
2019-01-06T22:59:54.896Z,6.67
2019-01-06T23:02:42.034Z,6.73
2019-01-06T23:05:29.206Z,7.83
2019-01-06T23:08:10.936Z,7.03
2019-01-06T23:10:58.084Z,6.67
2019-01-06T23:13:45.184Z,6.50
2019-01-06T23:16:16.201Z,7.60
2019-01-06T23:19:05.263Z,8.03
2019-01-06T23:21:38.964Z,6.20
2019-01-06T23:24:26.290Z,6.13
2019-01-06T23:27:00.499Z,7.50
2019-01-06T23:29:49.401Z,7.37
2019-01-06T23:32:36.528Z,6.07
2019-01-06T23:35:19.757Z,6.70
2019-01-06T23:37:56.633Z,6.73
2019-01-06T23:40:40.329Z,6.80
2019-01-06T23:43:22.980Z,6.70
2019-01-06T23:46:12.031Z,6.50
2019-01-06T23:48:58.273Z,6.97
2019-01-06T23:51:38.355Z,6.83
2019-01-06T23:54:21.601Z,6.93
2019-01-06T23:56:59.006Z,6.63
2019-01-06T23:59:32.922Z,6.97
